Brevard, North Carolina
Current Conditions -  °F | °C
As of 6:54 AM on Monday 24 Nov 2014 (Local Time) from KAVL Reporting Station
Few Clouds Few Clouds  
Wind Chill: 55°   Ceiling: Unl
Heat Index: 55°   Visibility: 10mi
Dew Point: 49°   Wind: 8mph
Humidity: 80%   Direction: 140°SE
Pressure: 29.74"   Gusts: NA
Location:  35.23°N, 82.73°W
Report Text: KAVL 241154Z 14007KT 100V160 10SM FEW038 13/09 A2974 RMK AO2 SLP061 70202 T01280094 10128 20117 53005
Loading
Personal Weather Stations






























Interactive Weather Map New forecast layout! Learn more

10-Day Weather Forecast

Advertisements
Track Severe Weather on mobile